• Join FlightAware (Why Join?)
  • Login
  • US Flag 
07:21PM EDT


 

Airport Tracker/Info


-or-


 

Live Flight TrackerFlight Track Log ✈ TYR848 ✈ 06-Dec-2013 ✈ LATI / TIA - LOWW / VIE

Flight Track Log - Related Links

Times and Time Zones

All times are in EST time to prevent confusion due to time zone crossing. See the TYR848 flight status page for this flight to view local times or setup timezone preferences in your user account.

Time Position Orientation Groundspeed Altitude Reporting Facility
EST Latitude Longitude Course Direction KTS MPH feet Rate Location/Type
09:15AM 41.9133 19.5108 343° North  Level Estimated
09:16AM 41.9964 19.4755 342° North  Level Estimated
09:17AM 42.0794 19.4401 342° North  Level Estimated
09:18AM 42.1625 19.4047 342° North  Level Estimated
09:19AM 42.2455 19.3691 342° North  Level Estimated
09:20AM 42.3285 19.3335 342° North  Level Estimated
09:21AM 42.4115 19.2977 342° North  Level Estimated
09:22AM 42.4945 19.2619 342° North  Level Estimated
09:23AM 42.5775 19.2260 342° North  Level Estimated
09:24AM 42.6604 19.1899 342° North  Level Estimated
09:25AM 42.7434 19.1538 342° North  Level Estimated
09:26AM 42.8264 19.1176 342° North  Level Estimated
09:27AM 42.9093 19.0812 342° North  Level Estimated
09:28AM 42.9922 19.0448 342° North  Level Estimated
09:29AM 43.0751 19.0083 342° North  Level Estimated
09:30AM 43.1580 18.9717 342° North  Level Estimated
09:31AM 43.2409 18.9350 342° North  Level Estimated
09:32AM 43.3238 18.8981 342° North  Level Estimated
09:33AM 43.4067 18.8612 342° North  Level Estimated
09:34AM 43.4895 18.8242 342° North  Level Estimated
09:35AM 43.5723 18.7871 342° North  Level Estimated
09:36AM 43.6552 18.7499 342° North  Level Estimated
09:37AM 43.7380 18.7125 342° North  Level Estimated
09:38AM 43.8208 18.6751 342° North  Level Estimated
09:39AM 43.9036 18.6376 342° North  Level Estimated
09:40AM 43.9864 18.6000 342° North  Level Estimated
09:41AM 44.0691 18.5622 342° North  Level Estimated
09:42AM 44.1519 18.5244 342° North  Level Estimated
09:43AM 44.2346 18.4864 342° North  Level Estimated
09:44AM 44.3174 18.4484 342° North  Level Estimated
09:45AM 44.4001 18.4102 342° North  Level Estimated
09:46AM 44.4828 18.3719 342° North  Level Estimated
09:47AM 44.5655 18.3335 342° North  Level Estimated
09:48AM 44.6482 18.2950 342° North  Level Estimated
09:49AM 44.7309 18.2564 342° North  Level Estimated
09:50AM 44.8135 18.2177 342° North  Level Estimated
09:51AM 44.8961 18.1789 342° North  Level Estimated
09:52AM 44.9788 18.1399 342° North  Level Estimated
09:53AM 45.0614 18.1009 342° North  Level Estimated
09:54AM 45.1440 18.0617 342° North  Level Estimated
09:55AM 45.2266 18.0225 341° North  Level Estimated
09:56AM 45.3091 17.9831 341° North  Level Estimated
09:57AM 45.3917 17.9436 341° North  Level Estimated
09:58AM 45.4743 17.9039 341° North  Level Estimated
09:59AM 45.5568 17.8642 341° North  Level Estimated
10:00AM 45.6393 17.8244 341° North  Level Estimated
10:01AM 45.7218 17.7844 341° North  Level Estimated
10:02AM 45.8043 17.7443 341° North  Level Estimated
10:03AM 45.8868 17.7041 341° North  Level Estimated
10:04AM 45.9692 17.6637 341° North  Level Estimated
10:05AM 46.0517 17.6233 341° North  Level Estimated
10:06AM 46.1341 17.5827 341° North  Level Estimated
10:07AM 46.2165 17.5420 341° North  Level Estimated
10:08AM 46.2989 17.5012 341° North  Level Estimated
10:09AM 46.3813 17.4603 341° North  Level Estimated
10:10AM 46.4637 17.4192 341° North  Level Estimated
10:11AM 46.5461 17.3780 341° North  Level Estimated
10:12AM 46.6284 17.3367 341° North  Level Estimated
10:13AM 46.7108 17.2953 341° North  Level Estimated
10:14AM 46.7931 17.2537 341° North  Level Estimated
10:15AM 46.8754 17.2120 341° North  Level Estimated
10:16AM 46.9577 17.1702 341° North  Level Estimated
10:17AM 47.0399 17.1283 341° North  Level Estimated
10:18AM 47.1222 17.0862 341° North  Level Estimated
10:19AM 47.2044 17.0440 341° North  Level Estimated
10:20AM 47.2867 17.0017 341° North  Level Estimated
10:21AM 47.3689 16.9592 341° North  Level Estimated
10:22AM 47.4510 16.9166 341° North  Level Estimated
10:23AM 47.5332 16.8739 341° North  Level Estimated
10:24AM 47.6154 16.8310 341° North  Level Estimated
10:25AM 47.6975 16.7880 341° North  Level Estimated
10:26AM 47.7797 16.7449 341° North  Level Estimated
10:27AM 47.8618 16.7016 341° North  Level Estimated
10:28AM 47.9439 16.6582 340° North  Level Estimated
10:29AM 48.0260 16.6146 340° North  Level Estimated
10:30AM 48.1080 16.5709 340° North  Level Estimated
10:31AM 48.1103 16.5697 340° North  Level Estimated
10:32AM 48.1103 16.5697 146° Southeast  Level Estimated
10:33AM 48.1103 16.5697 146° Southeast  Level Estimated
10:34AM 48.1103 16.5697 146° Southeast  Level Estimated
10:35AM 48.1103 16.5697 146° Southeast  Level Estimated
10:36AM 48.1103 16.5697 146° Southeast  Level Estimated
10:37AM 48.1103 16.5697 146° Southeast  Level Estimated
10:38AM 48.1103 16.5697 146° Southeast  Level Estimated
10:39AM 48.1103 16.5697 146° Southeast  Level Estimated
10:40AM 48.1103 16.5697 146° Southeast  Level Estimated
10:41AM 48.1103 16.5697 146° Southeast  Level Estimated
10:42AM 48.1103 16.5697 146° Southeast  Level Estimated
10:43AM 48.1103 16.5697 146° Southeast  Level Estimated
10:44AM 48.1103 16.5697 146° Southeast  Level Estimated
10:45AM 48.1103 16.5697 146° Southeast  Level Estimated
10:46AM 48.1103 16.5697 146° Southeast  Level Estimated